createdAt,value
2017-10-15T00:02:16.644Z,18.80
2017-10-15T00:04:43.820Z,18.80
2017-10-15T00:07:11.000Z,18.80
2017-10-15T00:09:38.919Z,18.70
2017-10-15T00:12:06.119Z,18.70
2017-10-15T00:14:34.035Z,18.70
2017-10-15T00:17:01.180Z,18.70
2017-10-15T00:19:28.365Z,18.70
2017-10-15T00:21:55.516Z,18.70
2017-10-15T00:24:22.695Z,18.70
2017-10-15T00:26:50.664Z,18.70
2017-10-15T00:29:18.584Z,18.70
2017-10-15T00:31:45.731Z,18.70
2017-10-15T00:34:12.924Z,18.70
2017-10-15T00:36:40.076Z,18.80
2017-10-15T00:39:07.237Z,18.90
2017-10-15T00:41:35.193Z,19.00
2017-10-15T00:44:02.375Z,19.00
2017-10-15T00:46:29.565Z,19.00
2017-10-15T00:48:56.753Z,19.00
2017-10-15T00:51:23.911Z,19.00
2017-10-15T00:53:51.864Z,19.00
2017-10-15T00:56:19.051Z,19.00
2017-10-15T00:58:46.205Z,19.00
2017-10-15T01:01:13.396Z,18.90
2017-10-15T01:03:40.576Z,18.90
2017-10-15T01:06:07.729Z,18.90
2017-10-15T01:08:34.935Z,18.90
2017-10-15T01:11:02.093Z,18.90
2017-10-15T01:13:29.252Z,18.90
2017-10-15T01:15:56.439Z,18.90
2017-10-15T01:18:23.632Z,18.90
2017-10-15T01:20:50.784Z,18.80
2017-10-15T01:23:17.973Z,18.80
2017-10-15T01:25:45.159Z,18.80
2017-10-15T01:28:13.071Z,18.70
2017-10-15T01:30:40.268Z,18.70
2017-10-15T01:33:08.185Z,18.70
2017-10-15T01:35:35.344Z,18.70
2017-10-15T01:38:02.540Z,18.70
2017-10-15T01:40:30.461Z,18.80
2017-10-15T01:42:57.616Z,18.80
2017-10-15T01:45:24.812Z,18.70
2017-10-15T01:47:52.733Z,18.80
2017-10-15T01:50:19.884Z,18.70
2017-10-15T01:52:47.067Z,18.70
2017-10-15T01:55:14.215Z,18.70
2017-10-15T01:57:41.411Z,18.80
2017-10-15T02:00:09.635Z,18.70
2017-10-15T02:02:36.788Z,18.70
2017-10-15T02:05:03.964Z,18.70
2017-10-15T02:07:31.888Z,18.70
2017-10-15T02:09:59.080Z,18.70
2017-10-15T02:12:26.231Z,18.70
2017-10-15T02:14:53.383Z,18.70
2017-10-15T02:17:20.580Z,18.70
2017-10-15T02:19:47.732Z,18.70
2017-10-15T02:22:14.879Z,18.70
2017-10-15T02:24:42.064Z,18.70
2017-10-15T02:27:09.211Z,18.70
2017-10-15T02:29:36.415Z,18.70
2017-10-15T02:32:04.339Z,18.70
2017-10-15T02:34:31.496Z,18.70
2017-10-15T02:36:58.677Z,18.70
2017-10-15T02:39:26.596Z,18.70
2017-10-15T02:41:53.790Z,18.60
2017-10-15T02:44:21.729Z,18.70
2017-10-15T02:46:49.644Z,18.70
2017-10-15T02:49:17.595Z,18.60
2017-10-15T02:51:44.795Z,18.60
2017-10-15T02:54:11.944Z,18.60
2017-10-15T02:56:39.128Z,18.60
2017-10-15T02:59:06.312Z,18.60
2017-10-15T03:01:34.236Z,18.60
2017-10-15T03:04:01.432Z,18.60
2017-10-15T03:06:29.361Z,18.60
2017-10-15T03:08:56.571Z,18.60
2017-10-15T03:11:23.731Z,18.60
2017-10-15T03:13:50.883Z,18.60
2017-10-15T03:16:18.068Z,18.60
2017-10-15T03:18:45.266Z,18.60
2017-10-15T03:21:14.155Z,18.60
2017-10-15T03:23:42.077Z,18.60
2017-10-15T03:26:10.295Z,18.50
2017-10-15T03:28:37.444Z,18.60
2017-10-15T03:31:05.417Z,18.60
2017-10-15T03:33:33.339Z,18.60
2017-10-15T03:36:00.495Z,18.50
2017-10-15T03:38:27.700Z,18.60
2017-10-15T03:40:55.637Z,18.50
2017-10-15T03:43:22.792Z,18.50
2017-10-15T03:45:49.987Z,18.50
2017-10-15T03:48:17.135Z,18.50
2017-10-15T03:50:44.416Z,18.50
2017-10-15T03:53:11.644Z,18.60
2017-10-15T03:55:38.796Z,18.50
2017-10-15T03:58:05.945Z,18.50
2017-10-15T04:00:33.156Z,18.60
2017-10-15T04:03:00.303Z,18.60
2017-10-15T04:05:27.518Z,18.60
2017-10-15T04:07:54.676Z,18.60
2017-10-15T04:10:21.832Z,18.60
2017-10-15T04:12:49.011Z,18.50
2017-10-15T04:15:16.263Z,18.50
2017-10-15T04:17:43.450Z,18.50
2017-10-15T04:20:10.664Z,18.50
2017-10-15T04:22:37.869Z,18.50
2017-10-15T04:25:05.020Z,18.50
2017-10-15T04:27:32.172Z,18.50
2017-10-15T04:29:59.363Z,18.50
2017-10-15T04:32:26.525Z,18.50
2017-10-15T04:34:53.671Z,18.50
2017-10-15T04:37:21.627Z,18.50
2017-10-15T04:39:48.783Z,18.50
2017-10-15T04:42:15.931Z,18.50
2017-10-15T04:44:43.116Z,18.60
2017-10-15T04:47:11.039Z,18.60
2017-10-15T04:49:38.227Z,18.60
2017-10-15T04:52:05.437Z,18.60
2017-10-15T04:54:32.593Z,18.60
2017-10-15T04:56:59.744Z,18.60
2017-10-15T04:59:26.944Z,18.60
2017-10-15T05:01:54.864Z,18.60
2017-10-15T05:04:22.032Z,18.60
2017-10-15T05:06:49.218Z,18.50
2017-10-15T05:09:17.171Z,18.60
2017-10-15T05:11:44.327Z,18.60
2017-10-15T05:14:11.516Z,18.60
2017-10-15T05:16:38.704Z,18.50
2017-10-15T05:19:05.856Z,18.50
2017-10-15T05:21:33.040Z,18.50
2017-10-15T05:24:00.196Z,18.50
2017-10-15T05:26:28.179Z,18.40
2017-10-15T05:28:56.095Z,18.50
2017-10-15T05:31:23.256Z,18.40
2017-10-15T05:33:50.461Z,18.50
2017-10-15T05:36:17.611Z,18.50
2017-10-15T05:38:44.764Z,18.50
2017-10-15T05:41:11.978Z,18.40
2017-10-15T05:43:39.136Z,18.50
2017-10-15T05:46:06.292Z,18.40
2017-10-15T05:48:33.547Z,18.50
2017-10-15T05:51:00.732Z,18.40
2017-10-15T05:53:27.892Z,18.50
2017-10-15T05:55:55.093Z,18.50
2017-10-15T05:58:22.276Z,18.60
2017-10-15T06:00:49.432Z,18.80
2017-10-15T06:03:16.619Z,19.00
2017-10-15T06:05:44.579Z,19.20
2017-10-15T06:08:11.728Z,19.20
2017-10-15T06:10:38.927Z,19.30
2017-10-15T06:13:06.085Z,19.30
2017-10-15T06:15:34.008Z,19.40
2017-10-15T06:18:01.212Z,19.40
2017-10-15T06:20:28.359Z,19.40
2017-10-15T06:22:56.275Z,19.40
2017-10-15T06:25:23.475Z,19.40
2017-10-15T06:27:51.398Z,19.50
2017-10-15T06:30:20.347Z,19.50
2017-10-15T06:32:48.312Z,19.70
2017-10-15T06:35:16.253Z,19.80
2017-10-15T06:37:43.407Z,19.80
2017-10-15T06:40:10.609Z,19.90
2017-10-15T06:42:37.761Z,19.90
2017-10-15T06:45:06.787Z,19.90
2017-10-15T06:47:33.987Z,20.00
2017-10-15T06:50:02.108Z,19.90
2017-10-15T06:52:29.305Z,20.00
2017-10-15T06:54:57.224Z,19.90
2017-10-15T06:57:24.381Z,19.90
2017-10-15T06:59:53.334Z,19.90
2017-10-15T07:02:20.579Z,19.90
2017-10-15T07:04:49.272Z,19.80
2017-10-15T07:07:16.440Z,19.80
2017-10-15T07:09:43.970Z,19.80
2017-10-15T07:12:11.963Z,19.80
2017-10-15T07:14:39.112Z,19.80
2017-10-15T07:17:06.265Z,19.80
2017-10-15T07:19:33.465Z,19.80
2017-10-15T07:22:00.619Z,19.80
2017-10-15T07:24:27.773Z,19.70
2017-10-15T07:26:55.728Z,19.70
2017-10-15T07:29:23.700Z,19.80
2017-10-15T07:31:50.895Z,19.80
2017-10-15T07:34:19.861Z,19.80
2017-10-15T07:36:47.048Z,19.80
2017-10-15T07:39:15.113Z,19.80
2017-10-15T07:41:43.031Z,19.80
2017-10-15T07:44:10.234Z,19.80
2017-10-15T07:46:38.152Z,19.80
2017-10-15T07:49:06.128Z,19.80
2017-10-15T07:51:33.314Z,19.80
2017-10-15T07:54:00.471Z,19.70
2017-10-15T07:56:28.434Z,19.70
2017-10-15T07:58:55.588Z,19.70
2017-10-15T08:01:23.511Z,19.70
2017-10-15T08:03:50.717Z,19.70
2017-10-15T08:06:18.655Z,19.80
2017-10-15T08:08:45.812Z,19.80
2017-10-15T08:11:13.006Z,19.80
2017-10-15T08:13:40.200Z,19.80
2017-10-15T08:16:07.350Z,19.80
2017-10-15T08:18:34.500Z,19.80
2017-10-15T08:21:01.687Z,19.80
2017-10-15T08:23:29.609Z,19.70
2017-10-15T08:25:56.812Z,19.70
2017-10-15T08:28:24.741Z,19.70
2017-10-15T08:30:51.906Z,19.70
2017-10-15T08:33:19.095Z,19.70
2017-10-15T08:35:47.015Z,19.60
2017-10-15T08:38:14.212Z,19.70
2017-10-15T08:40:42.132Z,19.70
2017-10-15T08:43:09.285Z,19.70
2017-10-15T08:45:36.471Z,19.70
2017-10-15T08:48:03.620Z,19.70
2017-10-15T08:50:30.809Z,19.70
2017-10-15T08:52:57.964Z,19.70
2017-10-15T08:55:25.157Z,19.50
2017-10-15T08:57:52.308Z,19.50
2017-10-15T09:00:19.572Z,19.40
2017-10-15T09:02:46.772Z,19.40
2017-10-15T09:05:14.891Z,19.30
2017-10-15T09:07:42.047Z,19.40
2017-10-15T09:10:09.232Z,19.40
2017-10-15T09:12:37.203Z,19.60
2017-10-15T09:15:05.124Z,19.70
2017-10-15T09:17:32.285Z,19.70
2017-10-15T09:19:59.474Z,19.70
2017-10-15T09:22:27.556Z,19.80
2017-10-15T09:24:54.712Z,19.70
2017-10-15T09:27:22.235Z,19.80
2017-10-15T09:29:50.276Z,19.70
2017-10-15T09:32:18.192Z,19.70
2017-10-15T09:34:46.138Z,19.70
2017-10-15T09:37:13.319Z,19.70
2017-10-15T09:39:41.238Z,19.70
2017-10-15T09:42:09.204Z,19.70
2017-10-15T09:44:36.357Z,19.70
2017-10-15T09:47:03.507Z,19.70
2017-10-15T09:49:30.694Z,19.70
2017-10-15T09:51:58.626Z,19.90
2017-10-15T09:54:25.824Z,19.80
2017-10-15T09:56:53.752Z,19.90
2017-10-15T09:59:20.901Z,19.90
2017-10-15T10:01:48.113Z,19.90
2017-10-15T10:04:15.271Z,20.00
2017-10-15T10:06:42.473Z,20.00
2017-10-15T10:09:10.545Z,19.90
2017-10-15T10:11:37.692Z,19.90
2017-10-15T10:14:04.892Z,20.00
2017-10-15T10:16:32.047Z,20.00
2017-10-15T10:18:59.195Z,19.90
2017-10-15T10:21:26.381Z,20.00
2017-10-15T10:23:53.535Z,20.00
2017-10-15T10:26:20.724Z,20.00
2017-10-15T10:28:47.904Z,20.00
2017-10-15T10:31:15.111Z,20.00
2017-10-15T10:33:42.259Z,20.00
2017-10-15T10:36:09.411Z,20.00
2017-10-15T10:38:36.612Z,20.00
2017-10-15T10:41:03.764Z,20.00
2017-10-15T10:43:30.920Z,20.10
2017-10-15T10:45:58.117Z,20.20
2017-10-15T10:48:25.271Z,20.30
2017-10-15T10:50:52.420Z,20.40
2017-10-15T10:53:19.607Z,20.50
2017-10-15T10:55:47.525Z,20.50
2017-10-15T10:58:14.715Z,20.50
2017-10-15T11:00:42.631Z,20.50
2017-10-15T11:03:09.782Z,20.50
2017-10-15T11:05:36.980Z,20.50
2017-10-15T11:08:04.132Z,20.50
2017-10-15T11:10:31.285Z,20.50
2017-10-15T11:12:59.241Z,20.50
2017-10-15T11:15:27.183Z,20.50
2017-10-15T11:17:54.365Z,20.50
2017-10-15T11:20:21.513Z,20.50
2017-10-15T11:22:48.699Z,20.50
2017-10-15T11:25:17.598Z,20.50
2017-10-15T11:27:44.749Z,20.40
2017-10-15T11:30:11.896Z,20.50
2017-10-15T11:32:39.851Z,20.40
2017-10-15T11:35:07.773Z,20.40
2017-10-15T11:37:34.919Z,20.40
2017-10-15T11:40:02.112Z,20.40
2017-10-15T11:42:29.268Z,20.40
2017-10-15T11:44:57.191Z,20.40
2017-10-15T11:47:24.395Z,20.40
2017-10-15T11:49:52.317Z,20.30
2017-10-15T11:52:19.496Z,20.30
2017-10-15T11:54:46.645Z,20.30
2017-10-15T11:57:13.836Z,20.30
2017-10-15T11:59:40.989Z,20.30
2017-10-15T12:02:08.143Z,20.30
2017-10-15T12:04:35.329Z,20.30
2017-10-15T12:07:02.500Z,20.20
2017-10-15T12:09:29.685Z,20.20
2017-10-15T12:11:57.601Z,20.20
2017-10-15T12:14:25.550Z,20.20
2017-10-15T12:16:53.495Z,20.20
2017-10-15T12:19:21.444Z,20.20
2017-10-15T12:21:48.600Z,20.20
2017-10-15T12:24:16.565Z,20.20
2017-10-15T12:26:43.719Z,20.20
2017-10-15T12:29:11.633Z,20.20
2017-10-15T12:31:38.834Z,20.20
2017-10-15T12:34:05.985Z,20.20
2017-10-15T12:36:33.140Z,20.20
2017-10-15T12:39:01.108Z,20.20
2017-10-15T12:41:28.261Z,20.20
2017-10-15T12:43:55.429Z,20.20
2017-10-15T12:46:23.384Z,20.20
2017-10-15T12:48:51.336Z,20.20
2017-10-15T12:51:20.493Z,20.20
2017-10-15T12:53:51.524Z,20.20
2017-10-15T12:56:19.245Z,20.20
2017-10-15T12:58:46.387Z,20.20
2017-10-15T13:01:13.546Z,20.20
2017-10-15T13:03:40.740Z,20.20
2017-10-15T13:06:07.892Z,20.20
2017-10-15T13:08:35.044Z,20.20
2017-10-15T13:11:02.239Z,20.20
2017-10-15T13:13:29.392Z,20.20
2017-10-15T13:15:56.538Z,20.20
2017-10-15T13:18:23.720Z,20.20
2017-10-15T13:20:51.639Z,20.20
2017-10-15T13:23:18.834Z,20.10
2017-10-15T13:25:45.989Z,20.20
2017-10-15T13:28:13.255Z,20.10
2017-10-15T13:30:41.168Z,20.10
2017-10-15T13:33:08.316Z,20.10
2017-10-15T13:35:35.512Z,20.10
2017-10-15T13:38:02.664Z,20.10
2017-10-15T13:40:29.817Z,20.20
2017-10-15T13:42:57.560Z,20.20
2017-10-15T13:45:24.711Z,20.20
2017-10-15T13:47:51.909Z,20.20
2017-10-15T13:50:20.366Z,20.10
2017-10-15T13:52:48.288Z,20.10
2017-10-15T13:55:15.484Z,20.10
2017-10-15T13:57:42.627Z,20.10
2017-10-15T14:00:09.777Z,20.00
2017-10-15T14:02:36.967Z,20.00
2017-10-15T14:05:04.124Z,20.00
2017-10-15T14:07:31.320Z,20.00
2017-10-15T14:09:58.472Z,20.00
2017-10-15T14:12:25.622Z,20.00
2017-10-15T14:14:52.815Z,20.00
2017-10-15T14:17:20.727Z,20.00
2017-10-15T14:19:47.871Z,20.00
2017-10-15T14:22:15.049Z,20.00
2017-10-15T14:24:42.233Z,20.00
2017-10-15T14:27:10.156Z,20.00
2017-10-15T14:29:38.104Z,20.00
2017-10-15T14:32:05.252Z,19.90
2017-10-15T14:34:33.196Z,20.00
2017-10-15T14:37:01.148Z,20.00
2017-10-15T14:39:28.300Z,20.00
2017-10-15T14:41:55.486Z,20.00
2017-10-15T14:44:22.635Z,20.00
2017-10-15T14:46:49.815Z,20.00
2017-10-15T14:49:16.969Z,20.00
2017-10-15T14:51:44.166Z,20.00
2017-10-15T14:54:12.083Z,19.90
2017-10-15T14:56:39.278Z,19.90
2017-10-15T14:59:07.199Z,19.90
2017-10-15T15:01:34.350Z,19.90
2017-10-15T15:04:01.528Z,19.90
2017-10-15T15:06:28.678Z,19.90
2017-10-15T15:08:55.859Z,19.90
2017-10-15T15:11:23.808Z,19.90
2017-10-15T15:13:51.015Z,19.90
2017-10-15T15:16:18.164Z,19.90
2017-10-15T15:18:45.315Z,19.90
2017-10-15T15:21:12.500Z,19.90
2017-10-15T15:23:39.649Z,19.90
2017-10-15T15:26:06.840Z,19.90
2017-10-15T15:28:34.759Z,19.90
2017-10-15T15:31:01.936Z,19.90
2017-10-15T15:33:29.136Z,20.00
2017-10-15T15:35:56.284Z,20.00
2017-10-15T15:38:23.435Z,20.00
2017-10-15T15:40:50.621Z,20.00
2017-10-15T15:43:17.771Z,20.10
2017-10-15T15:45:45.720Z,20.10
2017-10-15T15:48:12.874Z,20.10
2017-10-15T15:50:40.060Z,20.10
2017-10-15T15:53:07.245Z,20.10
2017-10-15T15:55:35.173Z,20.10
2017-10-15T15:58:02.365Z,20.10
2017-10-15T16:00:30.280Z,20.10
2017-10-15T16:02:57.469Z,20.10
2017-10-15T16:05:24.659Z,20.10
2017-10-15T16:07:51.859Z,20.10
2017-10-15T16:10:19.008Z,20.10
2017-10-15T16:12:46.162Z,20.10
2017-10-15T16:15:13.362Z,20.10
2017-10-15T16:17:40.512Z,20.10
2017-10-15T16:20:07.660Z,20.10
2017-10-15T16:22:34.838Z,20.10
2017-10-15T16:25:01.990Z,20.10
2017-10-15T16:27:29.172Z,20.10
2017-10-15T16:29:56.327Z,20.00
2017-10-15T16:32:23.507Z,20.00
2017-10-15T16:34:51.466Z,20.00
2017-10-15T16:37:19.387Z,20.00
2017-10-15T16:39:46.540Z,20.00
2017-10-15T16:42:13.760Z,20.00
2017-10-15T16:44:40.905Z,20.00
2017-10-15T16:47:08.820Z,19.90
2017-10-15T16:49:36.015Z,19.90
2017-10-15T16:52:03.928Z,20.00
2017-10-15T16:54:31.092Z,19.90
2017-10-15T16:56:58.307Z,20.00
2017-10-15T16:59:25.457Z,20.00
2017-10-15T17:01:53.412Z,20.00
2017-10-15T17:04:21.328Z,20.00
2017-10-15T17:06:48.528Z,20.00
2017-10-15T17:09:16.444Z,20.00
2017-10-15T17:11:43.600Z,20.00
2017-10-15T17:14:10.789Z,20.00
2017-10-15T17:16:37.947Z,20.00
2017-10-15T17:19:05.895Z,20.00
2017-10-15T17:21:33.050Z,20.00
2017-10-15T17:24:00.227Z,20.00
2017-10-15T17:26:28.196Z,20.00
2017-10-15T17:28:56.160Z,20.00
2017-10-15T17:31:24.089Z,20.00
2017-10-15T17:33:51.279Z,20.00
2017-10-15T17:36:19.194Z,20.00
2017-10-15T17:38:46.388Z,20.00
2017-10-15T17:41:13.568Z,20.00
2017-10-15T17:43:41.487Z,20.00
2017-10-15T17:46:08.699Z,20.00
2017-10-15T17:48:35.852Z,20.00
2017-10-15T17:51:03.076Z,20.00
2017-10-15T17:53:31.057Z,20.00
2017-10-15T17:55:59.510Z,20.00
2017-10-15T17:58:27.383Z,20.00
2017-10-15T18:00:55.160Z,20.00
2017-10-15T18:03:22.898Z,20.00
2017-10-15T18:05:50.927Z,20.00
2017-10-15T18:08:18.917Z,20.00
2017-10-15T18:10:47.299Z,20.00
2017-10-15T18:13:15.436Z,20.00
2017-10-15T18:15:42.995Z,20.00
2017-10-15T18:18:10.207Z,20.00
2017-10-15T18:20:37.876Z,20.20
2017-10-15T18:23:06.016Z,20.20
2017-10-15T18:25:33.651Z,20.30
2017-10-15T18:28:01.479Z,20.40
2017-10-15T18:30:30.611Z,20.40
2017-10-15T18:32:58.526Z,20.40
2017-10-15T18:35:26.007Z,20.40
2017-10-15T18:37:54.386Z,20.40
2017-10-15T18:40:23.436Z,20.30
2017-10-15T18:42:51.779Z,20.30
2017-10-15T18:45:19.898Z,20.30
2017-10-15T18:47:49.044Z,20.30
2017-10-15T18:50:17.484Z,20.20
2017-10-15T18:52:45.706Z,20.20
2017-10-15T18:55:13.682Z,20.20
2017-10-15T18:57:43.298Z,20.20
2017-10-15T19:00:11.563Z,20.20
2017-10-15T19:02:39.893Z,20.20
2017-10-15T19:08:01.100Z,20.10
2017-10-15T19:10:30.177Z,20.10
2017-10-15T19:12:59.326Z,20.10
2017-10-15T19:15:27.723Z,20.10
2017-10-15T19:17:56.487Z,20.10
2017-10-15T19:20:24.590Z,20.10
2017-10-15T19:22:53.030Z,20.10
2017-10-15T19:25:22.260Z,20.10
2017-10-15T19:27:50.533Z,20.10
2017-10-15T19:30:20.736Z,20.10
2017-10-15T19:32:48.898Z,20.10
2017-10-15T19:35:17.115Z,20.10
2017-10-15T19:37:45.105Z,20.10
2017-10-15T19:40:13.337Z,20.10
2017-10-15T19:42:41.603Z,20.10
2017-10-15T19:45:09.669Z,20.00
2017-10-15T19:47:37.835Z,20.00
2017-10-15T19:50:06.456Z,20.00
2017-10-15T19:52:34.471Z,20.00
2017-10-15T19:55:03.316Z,20.00
2017-10-15T19:57:30.986Z,20.00
2017-10-15T19:59:58.418Z,20.00
2017-10-15T20:02:26.077Z,20.10
2017-10-15T20:04:53.410Z,20.10
2017-10-15T20:07:20.714Z,20.10
2017-10-15T20:09:48.995Z,20.00
2017-10-15T20:12:16.235Z,20.00
2017-10-15T20:14:44.411Z,20.00
2017-10-15T20:17:12.345Z,20.00
2017-10-15T20:19:39.530Z,20.00
2017-10-15T20:22:06.962Z,20.00
2017-10-15T20:24:34.276Z,20.00
2017-10-15T20:27:01.858Z,20.00
2017-10-15T20:29:29.007Z,20.00
2017-10-15T20:31:56.341Z,20.00
2017-10-15T20:34:23.489Z,20.00
2017-10-15T20:36:50.825Z,20.00
2017-10-15T20:39:19.201Z,20.00
2017-10-15T20:41:46.424Z,20.00
2017-10-15T20:44:14.309Z,20.00
2017-10-15T20:46:41.460Z,20.00
2017-10-15T20:49:09.171Z,20.00
2017-10-15T20:51:36.320Z,20.00
2017-10-15T20:54:03.511Z,20.00
2017-10-15T20:56:30.656Z,20.00
2017-10-15T20:58:57.807Z,20.00
2017-10-15T21:01:25.273Z,20.00
2017-10-15T21:03:52.426Z,20.00
2017-10-15T21:06:19.625Z,20.00
2017-10-15T21:08:46.775Z,19.90
2017-10-15T21:11:13.962Z,19.90
2017-10-15T21:13:41.118Z,19.90
2017-10-15T21:16:08.305Z,20.00
2017-10-15T21:18:36.226Z,20.00
2017-10-15T21:21:03.376Z,20.00
2017-10-15T21:23:30.572Z,20.00
2017-10-15T21:25:57.724Z,20.00
2017-10-15T21:28:24.875Z,20.00
2017-10-15T21:30:52.318Z,20.00
2017-10-15T21:33:20.280Z,20.00
2017-10-15T21:35:47.473Z,20.00
2017-10-15T21:38:15.392Z,20.00
2017-10-15T21:40:43.309Z,20.00
2017-10-15T21:43:11.264Z,19.90
2017-10-15T21:45:38.411Z,19.90
2017-10-15T21:48:05.607Z,19.90
2017-10-15T21:50:32.755Z,19.90
2017-10-15T21:52:59.933Z,19.90
2017-10-15T21:55:27.082Z,19.90
2017-10-15T21:57:54.276Z,20.00
2017-10-15T22:00:22.193Z,20.00
2017-10-15T22:02:49.354Z,20.00
2017-10-15T22:05:16.535Z,20.00
2017-10-15T22:07:43.679Z,20.00
2017-10-15T22:10:10.885Z,19.90
2017-10-15T22:12:38.076Z,19.90
2017-10-15T22:15:05.264Z,19.90
2017-10-15T22:17:33.150Z,19.90
2017-10-15T22:20:00.385Z,19.90
2017-10-15T22:22:28.304Z,20.00
2017-10-15T22:24:55.452Z,20.00
2017-10-15T22:27:22.632Z,20.00
2017-10-15T22:29:49.813Z,20.00
2017-10-15T22:32:17.772Z,20.00
2017-10-15T22:34:45.691Z,20.00
2017-10-15T22:37:12.840Z,20.00
2017-10-15T22:39:40.024Z,20.00
2017-10-15T22:42:07.167Z,20.00
2017-10-15T22:44:34.360Z,19.90
2017-10-15T22:47:02.277Z,19.90
2017-10-15T22:49:29.424Z,19.90
2017-10-15T22:51:56.613Z,19.90
2017-10-15T22:54:23.808Z,19.90
2017-10-15T22:56:50.956Z,19.90
2017-10-15T22:59:18.108Z,20.00
2017-10-15T23:01:45.288Z,20.00
2017-10-15T23:04:12.436Z,20.00
2017-10-15T23:06:39.619Z,20.00
2017-10-15T23:09:06.768Z,20.00
2017-10-15T23:11:33.919Z,19.90
2017-10-15T23:14:01.109Z,19.90
2017-10-15T23:16:28.260Z,19.90
2017-10-15T23:18:55.438Z,19.90
2017-10-15T23:21:22.587Z,19.90
2017-10-15T23:23:49.767Z,19.90
2017-10-15T23:26:16.965Z,19.90
2017-10-15T23:28:44.107Z,19.90
2017-10-15T23:31:11.257Z,20.00
2017-10-15T23:33:38.448Z,20.00
2017-10-15T23:36:05.605Z,20.00
2017-10-15T23:38:32.758Z,20.00
2017-10-15T23:40:59.944Z,20.00
2017-10-15T23:43:27.861Z,19.90
2017-10-15T23:45:55.059Z,20.00
2017-10-15T23:48:22.211Z,19.90
2017-10-15T23:50:49.404Z,19.90
2017-10-15T23:53:16.556Z,19.90
2017-10-15T23:55:43.783Z,19.90
2017-10-15T23:58:11.702Z,19.90
